| time (UTC) | temp C | wind direction | speed KPH | gust KPH | rain 1hr cm | rain 24hr cm | rain mn cm | humidity % | barometer mb |
| 20260507030804 | 12 | 354 | 4.8 | 9.7 | 0.00 | 1.02 | 1.02 | 89 | 1010.0 |
| 20260507030303 | 12 | 346 | 0.0 | 8.0 | 0.00 | 1.02 | 1.02 | 89 | 1010.0 |
| 20260507025802 | 12 | 349 | 8.0 | 14.5 | 0.00 | 1.02 | 1.02 | 88 | 1010.0 |
| 20260507025306 | 12 | 307 | 0.0 | 4.8 | 0.00 | 1.02 | 1.02 | 88 | 1010.0 |
| 20260507024803 | 12 | 313 | 3.2 | 12.9 | 0.00 | 1.02 | 1.02 | 88 | 1010.0 |
| 20260507024303 | 12 | 306 | 0.0 | 0.0 | 0.00 | 1.02 | 1.02 | 89 | 1009.8 |
| 20260507023802 | 12 | 306 | 0.0 | 0.0 | 0.00 | 1.02 | 1.02 | 89 | 1009.9 |
| 20260507023302 | 12 | 306 | 0.0 | 0.0 | 0.00 | 1.02 | 1.02 | 89 | 1009.7 |
| 20260507022803 | 12 | 304 | 0.0 | 0.0 | 0.00 | 1.02 | 1.02 | 88 | 1009.7 |
| 20260507022306 | 12 | 305 | 3.2 | 8.0 | 0.00 | 1.02 | 1.02 | 88 | 1009.7 |
| 20260507021803 | 12 | 305 | 3.2 | 11.3 | 0.00 | 1.02 | 1.02 | 88 | 1009.9 |
| 20260507021303 | 12 | 301 | 3.2 | 16.1 | 0.00 | 1.02 | 1.02 | 89 | 1009.9 |
| 20260507020803 | 12 | 318 | 1.6 | 9.7 | 0.00 | 1.02 | 1.02 | 89 | 1010.1 |
| 20260507020303 | 12 | 321 | 0.0 | 8.0 | 0.00 | 1.02 | 1.02 | 90 | 1010.1 |
| 20260507015803 | 12 | 342 | 0.0 | 8.0 | 0.00 | 1.02 | 1.02 | 90 | 1010.1 |
| 20260507015306 | 12 | 345 | 1.6 | 4.8 | 0.00 | 1.02 | 1.02 | 90 | 1010.2 |
| 20260507014804 | 12 | 355 | 0.0 | 8.0 | 0.00 | 1.02 | 1.02 | 90 | 1010.4 |
| 20260507014303 | 12 | 345 | 3.2 | 14.5 | 0.00 | 1.02 | 1.02 | 91 | 1010.2 |
| 20260507013803 | 12 | 322 | 1.6 | 8.0 | 0.00 | 1.02 | 1.02 | 91 | 1010.3 |
| 20260507013303 | 13 | 331 | 6.4 | 11.3 | 0.00 | 1.02 | 1.02 | 91 | 1010.1 |
| 20260507012803 | 13 | 324 | 3.2 | 19.3 | 0.00 | 1.02 | 1.02 | 91 | 1010.2 |
| 20260507012306 | 13 | 5 | 4.8 | 14.5 | 0.00 | 1.02 | 1.02 | 91 | 1010.0 |
| 20260507011805 | 13 | 0 | 8.0 | 14.5 | 0.00 | 1.02 | 1.02 | 91 | 1010.0 |
| 20260507010807 | 13 | 0 | 11.3 | 19.3 | 0.00 | 1.02 | 1.02 | 91 | 1009.9 |
| 20260507010302 | 13 | 295 | 6.4 | 16.1 | 0.00 | 1.02 | 1.02 | 92 | 1009.7 |
| 20260507005803 | 14 | 304 | 0.0 | 9.7 | 0.00 | 1.02 | 1.02 | 92 | 1009.4 |
| 20260507005305 | 14 | 30 | 3.2 | 11.3 | 0.00 | 1.02 | 1.02 | 92 | 1009.3 |
| 20260507004802 | 14 | 349 | 4.8 | 9.7 | 0.00 | 1.02 | 1.02 | 92 | 1009.4 |
| 20260507004304 | 14 | 336 | 0.0 | 0.0 | 0.00 | 1.02 | 1.02 | 92 | 1009.2 |
| 20260507003803 | 14 | 337 | 3.2 | 9.7 | 0.00 | 1.02 | 1.02 | 92 | 1009.1 |
| 20260507003303 | 14 | 355 | 1.6 | 22.5 | 0.00 | 1.02 | 1.02 | 92 | 1008.9 |
| 20260507002805 | 15 | 345 | 3.2 | 16.1 | 0.00 | 1.02 | 1.02 | 92 | 1008.8 |
| 20260507002306 | 15 | 353 | 1.6 | 11.3 | 0.00 | 1.02 | 1.02 | 92 | 1008.7 |
| 20260507001803 | 15 | 24 | 4.8 | 11.3 | 0.00 | 1.02 | 1.02 | 92 | 1008.5 |
| 20260507001302 | 15 | 348 | 3.2 | 20.9 | 0.00 | 1.02 | 1.02 | 92 | 1008.3 |
| 20260507000803 | 16 | 352 | 11.3 | 25.7 | 0.00 | 1.02 | 1.02 | 92 | 1008.2 |
| 20260507000303 | 16 | 320 | 9.7 | 20.9 | 0.00 | 1.02 | 1.02 | 94 | 1008.1 |
| 20260506235803 | 16 | 277 | 0.0 | 0.0 | 0.00 | 1.02 | 1.02 | 94 | 1007.7 |
| 20260506235306 | 16 | 278 | 0.0 | 0.0 | 0.00 | 1.02 | 1.02 | 94 | 1007.7 |
| 20260506234802 | 16 | 272 | 0.0 | 0.0 | 0.00 | 1.02 | 1.02 | 95 | 1007.6 |
| 20260506234304 | 16 | 272 | 0.0 | 0.0 | 0.00 | 1.02 | 1.02 | 95 | 1007.6 |
| 20260506233803 | 16 | 271 | 0.0 | 9.7 | 0.00 | 1.02 | 1.02 | 96 | 1007.6 |
| 20260506232804 | 16 | 223 | 0.0 | 3.2 | 0.00 | 1.02 | 1.02 | 96 | 1007.6 |
| 20260506231804 | 17 | 221 | 0.0 | 8.0 | 0.00 | 1.02 | 1.02 | 96 | 1007.5 |
| 20260506231303 | 17 | 225 | 0.0 | 8.0 | 0.00 | 1.02 | 1.02 | 97 | 1007.6 |
| 20260506230802 | 17 | 224 | 1.6 | 8.0 | 0.00 | 1.02 | 1.02 | 97 | 1007.3 |
| 20260506230302 | 17 | 219 | 0.0 | 3.2 | 0.00 | 1.02 | 1.02 | 97 | 1007.3 |
| 20260506225802 | 17 | 217 | 0.0 | 0.0 | 0.00 | 1.02 | 1.02 | 97 | 1007.2 |
| 20260506224803 | 17 | 217 | 0.0 | 4.8 | 0.00 | 1.02 | 1.02 | 96 | 1007.0 |
| 20260506223303 | 17 | 217 | 0.0 | 0.0 | 0.00 | 1.02 | 1.02 | 97 | 1006.9 |
| 20260506222803 | 17 | 217 | 0.0 | 0.0 | 0.00 | 1.02 | 1.02 | 97 | 1007.1 |
| 20260506222305 | 17 | 219 | 0.0 | 0.0 | 0.00 | 1.02 | 1.02 | 97 | 1007.0 |
| 20260506221803 | 17 | 219 | 0.0 | 4.8 | 0.00 | 1.02 | 1.02 | 97 | 1006.9 |
| 20260506221303 | 17 | 218 | 0.0 | 0.0 | 0.00 | 1.02 | 1.02 | 96 | 1006.9 |
| 20260506220803 | 17 | 218 | 0.0 | 0.0 | 0.00 | 1.02 | 1.02 | 96 | 1006.9 |
| 20260506220303 | 17 | 218 | 0.0 | 0.0 | 0.00 | 1.02 | 1.02 | 96 | 1006.9 |
| 20260506215802 | 17 | 218 | 0.0 | 0.0 | 0.00 | 1.02 | 1.02 | 96 | 1006.7 |
| 20260506215305 | 17 | 218 | 0.0 | 0.0 | 0.00 | 1.02 | 1.02 | 96 | 1006.6 |
| 20260506214803 | 17 | 218 | 0.0 | 9.7 | 0.00 | 1.02 | 1.02 | 96 | 1006.6 |
| 20260506214304 | 17 | 215 | 0.0 | 0.0 | 0.00 | 1.02 | 1.02 | 96 | 1006.5 |
| 20260506213803 | 17 | 215 | 0.0 | 0.0 | 0.00 | 1.02 | 1.02 | 96 | 1006.4 |
| 20260506213302 | 17 | 215 | 0.0 | 11.3 | 0.00 | 1.02 | 1.02 | 96 | 1006.4 |
| 20260506212802 | 17 | 238 | 0.0 | 8.0 | 0.00 | 1.02 | 1.02 | 96 | 1006.3 |
| 20260506212306 | 17 | 238 | 0.0 | 12.9 | 0.00 | 1.02 | 1.02 | 97 | 1006.2 |
| 20260506211806 | 17 | 230 | 0.0 | 8.0 | 0.00 | 1.02 | 1.02 | 97 | 1006.3 |
| 20260506211304 | 17 | 251 | 0.0 | 8.0 | 0.00 | 1.02 | 1.02 | 98 | 1006.2 |
| 20260506210803 | 17 | 239 | 0.0 | 0.0 | 0.00 | 1.02 | 1.02 | 98 | 1006.2 |
| 20260506210303 | 17 | 238 | 0.0 | 4.8 | 0.00 | 1.02 | 1.02 | 98 | 1006.1 |
| 20260506205305 | 17 | 234 | 0.0 | 0.0 | 0.00 | 1.02 | 1.02 | 99 | 1006.1 |
| 20260506204803 | 17 | 225 | 0.0 | 0.0 | 0.00 | 1.02 | 1.02 | 99 | 1006.1 |
| 20260506203803 | 17 | 223 | 1.6 | 11.3 | 0.00 | 1.02 | 1.02 | 99 | 1006.2 |
| 20260506202803 | 17 | 219 | 1.6 | 11.3 | 0.00 | 1.02 | 1.02 | 99 | 1006.0 |
| 20260506202306 | 17 | 231 | 1.6 | 11.3 | 0.00 | 1.02 | 1.02 | 100 | 1005.9 |
| 20260506201805 | 17 | 222 | 0.0 | 4.8 | 0.00 | 1.02 | 1.02 | 100 | 1006.0 |
| 20260506201303 | 17 | 223 | 1.6 | 8.0 | 0.00 | 1.02 | 1.02 | 100 | 1006.0 |
| 20260506194803 | 16 | 258 | 0.0 | 3.2 | 0.00 | 1.02 | 1.02 | 100 | 1006.2 |
| 20260506194303 | 16 | 257 | 3.2 | 19.3 | 0.00 | 1.02 | 1.02 | 100 | 1006.2 |
| 20260506193803 | 16 | 227 | 0.0 | 4.8 | 0.00 | 1.02 | 1.02 | 100 | 1006.2 |
| 20260506192802 | 16 | 227 | 0.0 | 4.8 | 0.00 | 1.02 | 1.02 | 100 | 1006.2 |
| 20260506192305 | 16 | 227 | 0.0 | 4.8 | 0.00 | 1.02 | 1.02 | 100 | 1006.2 |
| 20260506191803 | 16 | 232 | 0.0 | 0.0 | 0.00 | 1.02 | 1.02 | 100 | 1006.2 |
| 20260506191303 | 16 | 232 | 0.0 | 12.9 | 0.00 | 1.02 | 1.02 | 100 | 1006.3 |
| 20260506190803 | 16 | 234 | 0.0 | 4.8 | 0.03 | 1.02 | 1.02 | 100 | 1006.4 |
| 20260506190303 | 16 | 230 | 3.2 | 14.5 | 0.03 | 1.02 | 1.02 | 100 | 1006.5 |
| 20260506185803 | 16 | 249 | 1.6 | 4.8 | 0.03 | 1.02 | 1.02 | 100 | 1006.5 |
| 20260506185306 | 16 | 248 | 3.2 | 11.3 | 0.03 | 1.02 | 1.02 | 100 | 1006.5 |
| 20260506184803 | 16 | 229 | 0.0 | 9.7 | 0.03 | 1.02 | 1.02 | 100 | 1006.5 |
| 20260506184303 | 16 | 235 | 0.0 | 0.0 | 0.03 | 1.02 | 1.02 | 100 | 1006.6 |
| 20260506183303 | 16 | 235 | 0.0 | 0.0 | 0.03 | 1.02 | 1.02 | 100 | 1006.6 |
| 20260506182803 | 16 | 235 | 1.6 | 11.3 | 0.03 | 1.02 | 1.02 | 100 | 1006.7 |
| 20260506182306 | 16 | 232 | 0.0 | 8.0 | 0.05 | 1.02 | 1.02 | 100 | 1006.7 |
| 20260506181803 | 16 | 233 | 0.0 | 8.0 | 0.05 | 1.02 | 1.02 | 100 | 1006.8 |
| 20260506180802 | 16 | 234 | 0.0 | 9.7 | 0.08 | 0.99 | 0.99 | 100 | 1006.8 |
| 20260506180303 | 15 | 235 | 0.0 | 0.0 | 0.08 | 0.99 | 0.99 | 100 | 1006.9 |
| 20260506175803 | 15 | 235 | 0.0 | 0.0 | 0.10 | 0.99 | 0.99 | 100 | 1006.9 |
| 20260506175306 | 15 | 235 | 1.6 | 8.0 | 0.10 | 0.99 | 0.99 | 100 | 1006.8 |
| 20260506174803 | 15 | 237 | 0.0 | 0.0 | 0.13 | 0.99 | 0.99 | 100 | 1006.8 |
| 20260506174303 | 15 | 237 | 0.0 | 0.0 | 0.13 | 0.99 | 0.99 | 100 | 1006.8 |
| 20260506173803 | 15 | 238 | 0.0 | 4.8 | 0.15 | 0.99 | 0.99 | 99 | 1006.8 |
| 20260506173303 | 15 | 238 | 0.0 | 0.0 | 0.18 | 0.99 | 0.99 | 99 | 1006.8 |
| 20260506172804 | 15 | 238 | 0.0 | 0.0 | 0.18 | 0.99 | 0.99 | 99 | 1006.8 |
| 20260506171303 | 15 | 238 | 0.0 | 0.0 | 0.18 | 0.94 | 0.94 | 99 | 1006.8 |
| 20260506170302 | 15 | 238 | 0.0 | 11.3 | 0.15 | 0.91 | 0.91 | 99 | 1006.9 |
| 20260506165305 | 15 | 223 | 0.0 | 0.0 | 0.13 | 0.89 | 0.89 | 99 | 1006.9 |
| 20260506164804 | 15 | 223 | 0.0 | 0.0 | 0.10 | 0.86 | 0.86 | 99 | 1006.9 |
| 20260506164303 | 15 | 223 | 0.0 | 0.0 | 0.10 | 0.86 | 0.86 | 99 | 1006.8 |
| 20260506163804 | 15 | 223 | 1.6 | 8.0 | 0.08 | 0.84 | 0.84 | 99 | 1006.8 |
| 20260506163303 | 15 | 216 | 0.0 | 11.3 | 0.08 | 0.81 | 0.81 | 99 | 1006.9 |
| 20260506162804 | 15 | 267 | 1.6 | 11.3 | 0.08 | 0.81 | 0.81 | 99 | 1006.9 |
| 20260506162306 | 15 | 259 | 1.6 | 11.3 | 0.10 | 0.79 | 0.79 | 99 | 1007.0 |
| 20260506161803 | 15 | 217 | 3.2 | 11.3 | 0.10 | 0.76 | 0.76 | 99 | 1006.9 |
| 20260506161303 | 15 | 243 | 1.6 | 9.7 | 0.13 | 0.76 | 0.76 | 99 | 1007.1 |
| 20260506160803 | 15 | 163 | 4.8 | 14.5 | 0.18 | 0.76 | 0.76 | 99 | 1007.0 |
| 20260506160303 | 15 | 230 | 3.2 | 16.1 | 0.23 | 0.76 | 0.76 | 99 | 1006.9 |
| 20260506155803 | 15 | 227 | 0.0 | 8.0 | 0.28 | 0.76 | 0.76 | 99 | 1006.9 |
| 20260506155306 | 15 | 226 | 0.0 | 12.9 | 0.33 | 0.76 | 0.76 | 99 | 1007.0 |
| 20260506154802 | 15 | 227 | 1.6 | 11.3 | 0.36 | 0.76 | 0.76 | 99 | 1007.0 |
| 20260506154302 | 15 | 326 | 0.0 | 0.0 | 0.36 | 0.76 | 0.76 | 98 | 1006.9 |
| 20260506153803 | 15 | 327 | 0.0 | 12.9 | 0.38 | 0.76 | 0.76 | 98 | 1006.9 |
| 20260506153303 | 15 | 236 | 1.6 | 4.8 | 0.36 | 0.74 | 0.74 | 99 | 1006.9 |
| 20260506152803 | 15 | 231 | 0.0 | 0.0 | 0.38 | 0.74 | 0.74 | 98 | 1007.0 |
| 20260506152305 | 15 | 228 | 0.0 | 9.7 | 0.36 | 0.69 | 0.69 | 98 | 1007.0 |
| 20260506151803 | 15 | 110 | 1.6 | 8.0 | 0.36 | 0.66 | 0.66 | 98 | 1007.0 |
| 20260506150804 | 15 | 200 | 1.6 | 8.0 | 0.33 | 0.58 | 0.58 | 98 | 1007.5 |
| 20260506150305 | 15 | 246 | 1.6 | 8.0 | 0.33 | 0.53 | 0.53 | 98 | 1007.8 |
| 20260506145803 | 16 | 251 | 0.0 | 8.0 | 0.28 | 0.48 | 0.48 | 98 | 1008.0 |
| 20260506145305 | 16 | 253 | 0.0 | 4.8 | 0.25 | 0.43 | 0.43 | 98 | 1007.9 |
| 20260506144803 | 16 | 252 | 1.6 | 8.0 | 0.23 | 0.41 | 0.41 | 98 | 1007.8 |
| 20260506144302 | 16 | 158 | 0.0 | 0.0 | 0.25 | 0.41 | 0.41 | 97 | 1007.6 |
| 20260506143803 | 16 | 158 | 0.0 | 0.0 | 0.23 | 0.38 | 0.38 | 97 | 1007.5 |
| 20260506143303 | 16 | 158 | 0.0 | 4.8 | 0.23 | 0.38 | 0.38 | 97 | 1007.3 |
| 20260506142803 | 16 | 211 | 0.0 | 8.0 | 0.20 | 0.36 | 0.36 | 97 | 1007.3 |
| 20260506142305 | 16 | 211 | 3.2 | 12.9 | 0.18 | 0.33 | 0.33 | 97 | 1007.5 |
| 20260506141803 | 16 | 239 | 0.0 | 12.9 | 0.15 | 0.30 | 0.30 | 97 | 1007.5 |
| 20260506140803 | 16 | 221 | 1.6 | 4.8 | 0.13 | 0.25 | 0.25 | 97 | 1007.4 |
| 20260506135803 | 16 | 206 | 0.0 | 0.0 | 0.10 | 0.20 | 0.20 | 96 | 1007.5 |
| 20260506135305 | 16 | 207 | 1.6 | 9.7 | 0.08 | 0.18 | 0.18 | 96 | 1007.6 |
| 20260506134303 | 16 | 232 | 0.0 | 8.0 | 0.08 | 0.15 | 0.15 | 96 | 1007.7 |
| 20260506132804 | 16 | 221 | 0.0 | 1.6 | 0.10 | 0.15 | 0.15 | 96 | 1007.6 |
| 20260506131802 | 16 | 219 | 0.0 | 0.0 | 0.13 | 0.15 | 0.15 | 95 | 1007.7 |
| 20260506131303 | 16 | 219 | 0.0 | 0.0 | 0.13 | 0.15 | 0.15 | 95 | 1007.7 |
| 20260506130804 | 16 | 218 | 0.0 | 4.8 | 0.10 | 0.13 | 0.13 | 95 | 1007.7 |
| 20260506130303 | 16 | 217 | 0.0 | 0.0 | 0.10 | 0.13 | 0.13 | 94 | 1007.9 |
| 20260506125803 | 16 | 217 | 0.0 | 0.0 | 0.10 | 0.10 | 0.10 | 94 | 1008.1 |
| 20260506125305 | 16 | 217 | 0.0 | 0.0 | 0.10 | 0.10 | 0.10 | 93 | 1008.0 |
| 20260506124802 | 16 | 217 | 0.0 | 0.0 | 0.08 | 0.08 | 0.08 | 93 | 1008.0 |
| 20260506124303 | 16 | 217 | 0.0 | 3.2 | 0.08 | 0.08 | 0.08 | 93 | 1008.0 |
| 20260506122803 | 16 | 217 | 1.6 | 9.7 | 0.05 | 0.05 | 0.05 | 91 | 1008.2 |
| 20260506122306 | 16 | 232 | 0.0 | 0.0 | 0.05 | 0.05 | 0.05 | 90 | 1008.0 |
| 20260506121802 | 16 | 232 | 0.0 | 0.0 | 0.03 | 0.03 | 0.03 | 90 | 1008.0 |
| 20260506121302 | 16 | 232 | 0.0 | 0.0 | 0.03 | 0.03 | 0.03 | 89 | 1008.0 |
| 20260506120802 | 16 | 232 | 0.0 | 0.0 | 0.03 | 0.03 | 0.03 | 88 | 1007.9 |
| 20260506120303 | 17 | 232 | 0.0 | 0.0 | 0.03 | 0.03 | 0.03 | 88 | 1008.0 |
| 20260506115803 | 17 | 232 | 0.0 | 3.2 | 0.00 | 0.00 | 0.00 | 87 | 1007.6 |
| 20260506115306 | 17 | 232 | 0.0 | 0.0 | 0.00 | 0.00 | 0.00 | 86 | 1007.6 |
| 20260506114803 | 17 | 232 | 0.0 | 0.0 | 0.00 | 0.00 | 0.00 | 86 | 1007.6 |
| 20260506114303 | 17 | 232 | 0.0 | 0.0 | 0.00 | 0.00 | 0.00 | 86 | 1007.7 |
| 20260506113803 | 17 | 232 | 0.0 | 0.0 | 0.00 | 0.00 | 0.00 | 86 | 1007.6 |
| 20260506113303 | 17 | 230 | 0.0 | 0.0 | 0.00 | 0.00 | 0.00 | 86 | 1007.6 |
| 20260506112803 | 17 | 230 | 0.0 | 0.0 | 0.00 | 0.00 | 0.00 | 86 | 1007.6 |
| 20260506112305 | 17 | 230 | 0.0 | 0.0 | 0.00 | 0.00 | 0.00 | 86 | 1007.5 |
| 20260506111803 | 17 | 230 | 0.0 | 0.0 | 0.00 | 0.00 | 0.00 | 85 | 1007.4 |
| 20260506111303 | 17 | 230 | 0.0 | 0.0 | 0.00 | 0.00 | 0.00 | 84 | 1007.4 |
| 20260506110804 | 17 | 230 | 0.0 | 0.0 | 0.00 | 0.00 | 0.00 | 83 | 1007.4 |
| 20260506110304 | 17 | 230 | 0.0 | 0.0 | 0.00 | 0.00 | 0.00 | 84 | 1007.5 |
| 20260506105802 | 17 | 230 | 0.0 | 0.0 | 0.00 | 0.00 | 0.00 | 83 | 1007.4 |
| 20260506105305 | 17 | 230 | 0.0 | 0.0 | 0.00 | 0.00 | 0.00 | 82 | 1007.4 |
| 20260506104803 | 17 | 232 | 0.0 | 0.0 | 0.00 | 0.00 | 0.00 | 82 | 1007.2 |
| 20260506104303 | 17 | 233 | 0.0 | 0.0 | 0.00 | 0.00 | 0.00 | 82 | 1007.0 |
| 20260506103803 | 17 | 233 | 1.6 | 4.8 | 0.00 | 0.00 | 0.00 | 81 | 1007.0 |
| 20260506103303 | 17 | 230 | 0.0 | 1.6 | 0.00 | 0.00 | 0.00 | 81 | 1007.0 |
| 20260506102803 | 17 | 230 | 0.0 | 0.0 | 0.00 | 0.00 | 0.00 | 80 | 1006.9 |
| 20260506101303 | 17 | 232 | 0.0 | 1.6 | 0.00 | 0.00 | 0.00 | 80 | 1006.9 |
| 20260506100803 | 17 | 234 | 1.6 | 8.0 | 0.00 | 0.00 | 0.00 | 80 | 1006.8 |
| 20260506100302 | 17 | 239 | 0.0 | 1.6 | 0.00 | 0.00 | 0.00 | 80 | 1006.8 |
| 20260506095802 | 17 | 239 | 1.6 | 8.0 | 0.00 | 0.00 | 0.00 | 79 | 1006.8 |
| 20260506095305 | 17 | 245 | 1.6 | 8.0 | 0.00 | 0.00 | 0.00 | 79 | 1006.8 |
| 20260506094803 | 17 | 241 | 0.0 | 0.0 | 0.00 | 0.00 | 0.00 | 79 | 1006.8 |
| 20260506094303 | 17 | 241 | 0.0 | 0.0 | 0.00 | 0.00 | 0.00 | 79 | 1006.9 |
| 20260506093804 | 17 | 241 | 0.0 | 0.0 | 0.00 | 0.00 | 0.00 | 78 | 1007.0 |
| 20260506093303 | 17 | 241 | 0.0 | 0.0 | 0.00 | 0.00 | 0.00 | 78 | 1007.0 |
| 20260506092803 | 17 | 241 | 0.0 | 0.0 | 0.00 | 0.00 | 0.00 | 77 | 1007.0 |
| 20260506091303 | 17 | 241 | 0.0 | 0.0 | 0.00 | 0.00 | 0.00 | 77 | 1007.0 |
| 20260506090803 | 17 | 241 | 0.0 | 0.0 | 0.00 | 0.00 | 0.00 | 77 | 1007.1 |
| 20260506090303 | 17 | 241 | 0.0 | 0.0 | 0.00 | 0.00 | 0.00 | 77 | 1007.1 |
| 20260506085305 | 17 | 241 | 0.0 | 0.0 | 0.00 | 0.00 | 0.00 | 77 | 1007.1 |
| 20260506084803 | 17 | 241 | 0.0 | 0.0 | 0.00 | 0.00 | 0.00 | 76 | 1007.0 |
| 20260506084302 | 17 | 241 | 0.0 | 0.0 | 0.00 | 0.00 | 0.00 | 76 | 1007.1 |
| 20260506083803 | 17 | 241 | 0.0 | 0.0 | 0.00 | 0.00 | 0.00 | 76 | 1007.1 |
| 20260506083303 | 17 | 241 | 0.0 | 0.0 | 0.00 | 0.00 | 0.00 | 76 | 1007.1 |
| 20260506082305 | 17 | 241 | 0.0 | 0.0 | 0.00 | 0.00 | 0.00 | 76 | 1007.2 |
| 20260506081802 | 17 | 241 | 0.0 | 0.0 | 0.00 | 0.00 | 0.00 | 76 | 1007.2 |
| 20260506081303 | 17 | 241 | 0.0 | 0.0 | 0.00 | 0.00 | 0.00 | 75 | 1007.1 |
| 20260506080302 | 17 | 241 | 0.0 | 0.0 | 0.00 | 0.00 | 0.00 | 75 | 1007.1 |
| 20260506073303 | 17 | 241 | 0.0 | 0.0 | 0.00 | 0.00 | 0.00 | 73 | 1007.2 |
| 20260506072803 | 17 | 241 | 0.0 | 3.2 | 0.00 | 0.00 | 0.00 | 73 | 1007.2 |
| 20260506072305 | 17 | 241 | 0.0 | 0.0 | 0.00 | 0.00 | 0.00 | 72 | 1007.3 |
| 20260506071805 | 17 | 241 | 0.0 | 0.0 | 0.00 | 0.00 | 0.00 | 72 | 1007.2 |
| 20260506071304 | 17 | 241 | 0.0 | 0.0 | 0.00 | 0.00 | 0.00 | 72 | 1007.2 |
| 20260506070803 | 17 | 241 | 0.0 | 0.0 | 0.00 | 0.00 | 0.00 | 73 | 1007.3 |
| 20260506070303 | 17 | 241 | 0.0 | 0.0 | 0.00 | 0.00 | 0.00 | 72 | 1007.5 |
| 20260506061803 | 18 | 241 | 0.0 | 0.0 | 0.00 | 0.00 | 0.00 | 68 | 1008.0 |
| 20260506061304 | 18 | 241 | 0.0 | 0.0 | 0.00 | 0.00 | 0.00 | 67 | 1008.1 |
| 20260506060303 | 18 | 241 | 0.0 | 0.0 | 0.00 | 0.00 | 0.00 | 66 | 1008.1 |
| 20260506051305 | 18 | 244 | 0.0 | 4.8 | 0.00 | 0.00 | 0.00 | 64 | 1008.5 |
| 20260506050803 | 18 | 242 | 0.0 | 3.2 | 0.00 | 0.00 | 0.00 | 64 | 1008.5 |
| 20260506050303 | 18 | 242 | 0.0 | 9.7 | 0.00 | 0.00 | 0.00 | 64 | 1008.5 |
| 20260506044803 | 18 | 233 | 1.6 | 9.7 | 0.00 | 0.00 | 0.00 | 63 | 1008.3 |
| 20260506044304 | 18 | 219 | 0.0 | 0.0 | 0.00 | 0.00 | 0.00 | 63 | 1008.3 |
| 20260506042805 | 18 | 218 | 0.0 | 3.2 | 0.00 | 0.00 | 0.00 | 63 | 1008.4 |
| 20260506042305 | 18 | 218 | 0.0 | 1.6 | 0.00 | 0.00 | 0.00 | 63 | 1008.4 |
| 20260506041803 | 19 | 223 | 0.0 | 4.8 | 0.00 | 0.00 | 0.00 | 63 | 1008.4 |
| 20260506041303 | 19 | 219 | 0.0 | 1.6 | 0.00 | 0.00 | 0.00 | 63 | 1008.4 |
| 20260506040812 | 19 | 220 | 0.0 | 1.6 | 0.00 | 0.00 | 0.00 | 63 | 1008.4 |
| 20260506040303 | 19 | 220 | 0.0 | 0.0 | 0.00 | 0.00 | 0.00 | 62 | 1008.4 |
| 20260506035805 | 19 | 220 | 0.0 | 8.0 | 0.00 | 0.00 | 0.00 | 62 | 1008.4 |
| 20260506035306 | 19 | 213 | 1.6 | 4.8 | 0.00 | 0.00 | 0.00 | 62 | 1008.4 |
| 20260506034803 | 19 | 199 | 0.0 | 8.0 | 0.00 | 0.00 | 0.00 | 61 | 1008.3 |
| 20260506034303 | 19 | 257 | 0.0 | 8.0 | 0.00 | 0.00 | 0.00 | 60 | 1008.4 |
| 20260506033304 | 20 | 264 | 0.0 | 4.8 | 0.00 | 0.00 | 0.00 | 59 | 1008.3 |
| 20260506032802 | 20 | 197 | 0.0 | 0.0 | 0.00 | 0.00 | 0.00 | 59 | 1008.4 |
| 20260506032305 | 20 | 199 | 1.6 | 12.9 | 0.00 | 0.00 | 0.00 | 59 | 1008.4 |
| 20260506031803 | 20 | 227 | 0.0 | 0.0 | 0.00 | 0.00 | 0.00 | 58 | 1008.4 |
| 20260506031311 | 20 | 227 | 0.0 | 0.0 | 0.00 | 0.00 | 0.00 | 58 | 1008.3 |